Time;durP1;ratioP1;P1;durP2;ratioP2;P2;SDS_P1;SDS_P2;PMS_P1;PMS_P2;Temp;Humidity;BMP_temperature;BMP_pressure;BME280_temperature;BME280_humidity;BME280_pressure;Samples;Min_cycle;Max_cycle;Signal;HPM_P1;HPM_P2
2021/04/08 00:00:21;;;;;;;32.45;18.08;;;;;;;11.80;36.92;71882.84;5003681;28;20027;-88
2021/04/08 00:02:48;;;;;;;34.72;18.13;;;;;;;12.06;36.52;71907.16;4995764;28;20033;-86
2021/04/08 00:05:16;;;;;;;29.02;18.23;;;;;;;11.77;36.00;71876.53;5011716;28;20021;-87
2021/04/08 00:07:43;;;;;;;29.88;16.77;;;;;;;11.46;36.82;71841.34;4991473;28;20080;-88
2021/04/08 00:10:12;;;;;;;37.70;17.33;;;;;;;12.82;36.02;71997.00;4989981;28;20041;-86
2021/04/08 00:12:39;;;;;;;32.78;17.20;;;;;;;11.55;35.98;71854.22;4987197;28;20030;-87
2021/04/08 00:15:11;;;;;;;28.33;16.00;;;;;;;12.70;35.99;71986.66;4984393;28;20026;-88
2021/04/08 00:17:38;;;;;;;36.45;15.77;;;;;;;12.56;34.46;71969.94;4988642;28;20109;-87
2021/04/08 00:20:20;;;;;;;20.48;11.98;;;;;;;12.95;32.93;72012.53;4987234;28;20053;-87
2021/04/08 00:22:47;;;;;;;31.27;14.88;;;;;;;12.50;33.98;71962.78;4985122;28;20023;-87
2021/04/08 00:25:15;;;;;;;35.78;15.93;;;;;;;12.91;35.24;72007.75;5001740;28;20050;-87
2021/04/08 00:27:43;;;;;;;28.17;14.65;;;;;;;12.17;35.37;71923.03;4996747;28;20033;-85
2021/04/08 00:30:10;;;;;;;26.30;13.98;;;;;;;12.72;34.40;71986.25;4993164;28;20038;-87
2021/04/08 00:32:37;;;;;;;25.23;12.40;;;;;;;12.89;32.29;72002.00;4992692;28;20038;-87
2021/04/08 00:35:05;;;;;;;20.52;14.15;;;;;;;12.73;31.91;71984.69;4992107;28;20479;-86
2021/04/08 00:37:33;;;;;;;22.45;14.45;;;;;;;12.42;31.84;71948.31;4991498;28;20085;-88
2021/04/08 00:40:00;;;;;;;22.20;14.05;;;;;;;12.86;32.25;72005.13;4990645;28;20030;-86
2021/04/08 00:42:27;;;;;;;29.38;12.50;;;;;;;13.30;31.32;72054.69;4990412;28;20038;-87
2021/04/08 00:44:55;;;;;;;24.40;13.15;;;;;;;13.65;31.13;72095.28;4991224;28;20030;-87
2021/04/08 00:47:22;;;;;;;18.35;11.52;;;;;;;13.49;31.64;72074.59;4991159;28;20488;-88
2021/04/08 00:49:48;;;;;;;18.73;12.05;;;;;;;13.22;31.71;72043.56;4994622;28;20066;-88
2021/04/08 00:52:15;;;;;;;24.50;11.90;;;;;;;13.00;31.60;72015.72;4993786;28;20088;-89
2021/04/08 00:54:43;;;;;;;21.50;11.75;;;;;;;13.79;31.54;72111.41;4990681;28;20492;-88
2021/04/08 00:57:10;;;;;;;28.80;13.45;;;;;;;13.22;32.31;72042.97;4991318;28;20088;-89
2021/04/08 00:59:37;;;;;;;27.45;14.35;;;;;;;13.34;31.71;72053.91;4991500;28;20125;-87
2021/04/08 01:02:04;;;;;;;21.60;13.93;;;;;;;13.24;31.90;72045.34;4990893;28;20458;-87
2021/04/08 01:04:31;;;;;;;21.55;17.45;;;;;;;13.95;31.71;72130.53;4990569;28;20104;-88
2021/04/08 01:06:58;;;;;;;38.22;14.27;;;;;;;13.90;32.60;72123.97;4987704;28;20026;-87
2021/04/08 01:09:25;;;;;;;24.95;15.20;;;;;;;13.87;36.15;72117.59;4971958;28;20041;-89
2021/04/08 01:11:52;;;;;;;33.53;16.35;;;;;;;12.81;38.35;71998.56;4978833;28;20026;-89
2021/04/08 01:14:19;;;;;;;26.98;14.75;;;;;;;13.34;37.48;72054.53;4994745;28;20077;-88
2021/04/08 01:16:56;;;;;;;22.25;13.75;;;;;;;13.43;35.50;72070.19;4995656;28;20033;-88
2021/04/08 01:19:45;;;;;;;21.35;13.55;;;;;;;13.41;34.20;72062.28;4994978;28;20026;-87
2021/04/08 01:22:18;;;;;;;28.08;13.45;;;;;;;13.83;36.08;72113.41;4967464;28;20177;-87
2021/04/08 01:25:16;;;;;;;24.90;15.43;;;;;;;13.60;37.57;72089.31;4994735;28;20042;-88
2021/04/08 01:28:03;;;;;;;27.92;14.68;;;;;;;13.35;38.09;72057.88;4995626;28;20031;-87
2021/04/08 01:30:43;;;;;;;24.40;14.65;;;;;;;13.56;39.15;72082.38;4996676;28;20520;-88
2021/04/08 01:33:24;;;;;;;21.55;14.20;;;;;;;13.48;41.16;72073.41;4997715;28;20030;-90
2021/04/08 01:35:54;;;;;;;38.95;16.00;;;;;;;13.12;37.63;72031.63;4995750;28;20026;-88
2021/04/08 01:38:29;;;;;;;19.98;14.07;;;;;;;13.72;37.80;72097.53;4994564;28;20038;-88
2021/04/08 01:40:57;;;;;;;26.42;14.38;;;;;;;13.78;38.13;72110.81;4994604;28;20037;-88
2021/04/08 01:43:33;;;;;;;17.00;14.07;;;;;;;13.78;39.18;72107.44;4994407;28;20041;-88
2021/04/08 01:46:01;;;;;;;21.42;14.30;;;;;;;13.70;41.04;72098.50;4996032;28;20023;-87
2021/04/08 01:48:29;;;;;;;44.13;14.88;;;;;;;13.63;40.04;72087.38;4994289;28;20161;-88
2021/04/08 01:50:59;;;;;;;25.90;13.30;;;;;;;14.01;39.92;72134.31;4994444;28;20034;-87
2021/04/08 01:53:26;;;;;;;;;;;;;;;13.79;40.14;72109.25;4994810;28;20492;-87
2021/04/08 01:55:56;;;;;;;19.45;14.23;;;;;;;13.07;42.59;72022.91;4993281;28;19917;-88
2021/04/08 01:58:25;;;;;;;31.10;14.30;;;;;;;12.28;42.47;71932.81;4995207;28;20042;-87
2021/04/08 02:00:54;;;;;;;25.63;14.93;;;;;;;13.73;42.01;72104.84;4998212;28;20384;-89
2021/04/08 02:03:23;;;;;;;26.55;15.43;;;;;;;13.17;41.24;72034.81;4993034;28;20420;-88
2021/04/08 02:05:50;;;;;;;29.08;14.32;;;;;;;13.53;42.94;72078.78;4993496;28;20113;-89
2021/04/08 02:08:20;;;;;;;33.90;14.23;;;;;;;13.18;42.55;72038.78;4992866;28;20400;-87
2021/04/08 02:10:48;;;;;;;27.65;14.00;;;;;;;13.70;42.36;72101.25;4993073;28;20030;-88
2021/04/08 02:13:16;;;;;;;31.13;15.00;;;;;;;13.39;41.90;72063.25;4992967;28;20030;-88
2021/04/08 02:15:45;;;;;;;28.63;14.35;;;;;;;12.90;43.45;72008.72;4992713;28;20145;-86
2021/04/08 02:18:17;;;;;;;24.95;14.73;;;;;;;13.21;42.68;72044.53;4992571;28;20100;-87
2021/04/08 02:20:48;;;;;;;29.92;17.80;;;;;;;12.30;42.07;71934.59;4993835;28;20392;-88
2021/04/08 02:23:22;;;;;;;23.08;14.32;;;;;;;12.36;41.84;71941.16;4992274;28;20420;-88
2021/04/08 02:25:51;;;;;;;30.38;15.55;;;;;;;13.16;42.29;72033.63;4991845;28;20045;-88
2021/04/08 02:28:19;;;;;;;26.15;14.32;;;;;;;13.13;42.78;72032.81;4992925;28;20108;-87
2021/04/08 02:30:50;;;;;;;26.17;15.63;;;;;;;13.33;41.80;72058.84;4995924;28;20503;-87
2021/04/08 02:33:26;;;;;;;26.15;16.05;;;;;;;13.07;41.47;72029.00;4994145;28;20041;-87
2021/04/08 02:35:55;;;;;;;22.90;16.08;;;;;;;13.53;40.44;72082.16;4995440;28;20455;-88
2021/04/08 02:38:24;;;;;;;27.30;15.45;;;;;;;12.33;37.88;71940.94;4993968;28;20032;-87
2021/04/08 02:40:51;;;;;;;35.65;16.10;;;;;;;13.35;40.42;72055.13;4994567;28;20065;-88
2021/04/08 02:43:18;;;;;;;24.75;15.00;;;;;;;13.35;40.67;72060.63;4994214;28;20065;-88
2021/04/08 02:45:46;;;;;;;25.75;14.35;;;;;;;13.35;41.19;72061.25;4999927;28;20023;-86
2021/04/08 02:48:15;;;;;;;22.63;14.45;;;;;;;12.91;40.99;72009.91;5008974;28;20066;-87
2021/04/08 02:50:45;;;;;;;28.55;15.68;;;;;;;12.42;39.09;71951.09;4998984;28;20030;-88
2021/04/08 02:53:19;;;;;;;24.00;15.93;;;;;;;12.10;38.36;71917.44;4992907;28;20033;-88
2021/04/08 02:56:11;;;;;;;33.85;17.52;;;;;;;13.35;39.93;72057.88;4995423;28;20046;-87
2021/04/08 02:58:40;;;;;;;28.70;15.63;;;;;;;13.02;38.79;72019.69;5004653;28;20090;-87
2021/04/08 03:01:12;;;;;;;28.63;16.48;;;;;;;12.45;37.85;71958.00;5003068;28;20023;-88
2021/04/08 03:03:58;;;;;;;24.35;15.13;;;;;;;13.41;37.90;72067.81;5008800;28;20035;-88
2021/04/08 03:06:26;;;;;;;20.00;13.63;;;;;;;13.28;34.84;72050.72;5007680;28;20029;-87
2021/04/08 03:08:59;;;;;;;22.75;15.50;;;;;;;13.64;36.21;72094.09;5010520;28;20703;-88
2021/04/08 03:11:36;;;;;;;26.83;13.02;;;;;;;13.99;35.27;72134.69;5001368;28;20392;-87
2021/04/08 03:14:10;;;;;;;23.63;12.70;;;;;;;13.43;35.39;72070.19;5008456;28;20029;-87
2021/04/08 03:16:41;;;;;;;25.15;13.48;;;;;;;13.69;38.39;72097.31;5014962;28;20105;-87
2021/04/08 03:19:11;;;;;;;36.20;14.90;;;;;;;12.85;40.52;72000.59;5015574;28;20042;-88
2021/04/08 03:21:39;;;;;;;17.42;12.60;;;;;;;13.38;43.69;72064.22;5014590;28;20065;-87
2021/04/08 03:24:08;;;;;;;24.33;13.05;;;;;;;12.66;41.33;71979.09;4996079;28;20026;-87
2021/04/08 03:26:35;;;;;;;22.90;12.98;;;;;;;12.42;42.00;71951.66;4992658;28;20045;-87
2021/04/08 03:29:03;;;;;;;23.63;13.15;;;;;;;13.91;40.72;72122.38;4991827;28;20483;-88
2021/04/08 03:31:31;;;;;;;23.60;15.23;;;;;;;13.73;41.41;72104.25;4991805;28;20057;-87
2021/04/08 03:33:58;;;;;;;31.27;14.88;;;;;;;13.63;39.83;72087.97;4991570;28;20030;-87
2021/04/08 03:36:26;;;;;;;20.17;13.95;;;;;;;12.91;40.55;72009.91;4991547;28;20480;-88
2021/04/08 03:38:55;;;;;;;30.77;15.07;;;;;;;13.00;41.06;72020.66;4991085;28;20125;-87
2021/04/08 03:41:24;;;;;;;19.95;14.40;;;;;;;13.02;41.74;72017.53;4992057;28;20041;-88
2021/04/08 03:43:51;;;;;;;22.58;13.13;;;;;;;13.09;42.67;72028.63;4991595;28;20026;-87
2021/04/08 03:46:20;;;;;;;26.90;12.65;;;;;;;13.76;42.62;72105.06;4993236;28;20126;-88
2021/04/08 03:48:49;;;;;;;15.52;10.52;;;;;;;14.05;44.27;72138.50;4991817;28;20031;-88
2021/04/08 03:51:21;;;;;;;18.45;9.15;;;;;;;13.58;45.21;72086.91;4991892;28;20069;-86
2021/04/08 03:53:49;;;;;;;21.70;10.73;;;;;;;12.52;45.44;71962.41;4994156;28;20081;-88
2021/04/08 03:56:16;;;;;;;14.90;8.07;;;;;;;12.38;46.59;71949.66;5012163;28;20099;-88
2021/04/08 03:58:44;;;;;;;13.68;7.10;;;;;;;12.66;45.26;71976.34;5013648;28;20026;-87
2021/04/08 04:01:12;;;;;;;15.70;8.23;;;;;;;13.30;45.78;72049.16;5007318;28;20039;-89
2021/04/08 04:03:39;;;;;;;18.27;8.35;;;;;;;12.57;44.65;71966.22;5011789;28;20029;-88
2021/04/08 04:06:12;;;;;;;14.45;6.78;;;;;;;12.96;46.40;72010.94;5013445;28;20010;-87
2021/04/08 04:08:40;;;;;;;16.90;7.47;;;;;;;12.87;45.71;72002.97;4994528;28;20132;-89
2021/04/08 04:11:10;;;;;;;21.58;7.15;;;;;;;13.19;46.73;72042.16;4996218;28;20034;-88
2021/04/08 04:13:36;;;;;;;;;;;;;;;13.71;46.76;72099.09;4996479;28;20112;-86
2021/04/08 04:16:07;;;;;;;21.52;7.47;;;;;;;13.12;45.14;72028.84;4996658;28;20366;-87
2021/04/08 04:18:34;;;;;;;11.65;7.53;;;;;;;12.72;45.01;71989.03;4995821;28;20044;-88
2021/04/08 04:21:01;;;;;;;19.65;7.55;;;;;;;13.61;44.04;72088.34;4996079;28;20120;-87
2021/04/08 04:23:28;;;;;;;12.63;6.18;;;;;;;13.13;41.09;72035.56;4995264;28;20445;-87
2021/04/08 04:25:55;;;;;;;13.05;5.95;;;;;;;12.97;38.68;72017.66;4994746;28;20030;-88
2021/04/08 04:28:21;;;;;;;12.88;5.97;;;;;;;12.62;39.17;71970.97;5012468;28;20026;-88
2021/04/08 04:30:48;;;;;;;12.55;5.07;;;;;;;13.48;37.22;72076.19;4995437;28;20495;-88
2021/04/08 04:33:16;;;;;;;9.35;5.30;;;;;;;13.39;35.11;72065.41;5012580;28;20030;-88
2021/04/08 04:35:42;;;;;;;12.57;5.38;;;;;;;13.08;35.36;72029.59;4995280;28;20057;-87
2021/04/08 04:38:09;;;;;;;19.42;5.65;;;;;;;13.45;36.62;72069.84;4994230;28;20173;-88
2021/04/08 04:40:36;;;;;;;9.43;5.78;;;;;;;13.81;37.54;72108.28;4994167;28;20076;-88
2021/04/08 04:43:03;;;;;;;12.77;6.80;;;;;;;14.32;37.16;72172.91;4993220;28;20112;-88
2021/04/08 04:45:30;;;;;;;18.10;7.15;;;;;;;13.82;37.55;72115.00;4994166;28;20037;-87
2021/04/08 04:47:57;;;;;;;14.00;5.47;;;;;;;14.22;34.54;72155.44;4997457;28;20113;-88
2021/04/08 04:50:25;;;;;;;13.57;5.18;;;;;;;13.84;36.03;72116.78;5004663;28;20040;-87
2021/04/08 04:52:52;;;;;;;11.98;5.32;;;;;;;13.02;36.16;72020.28;5022606;28;20077;-88
2021/04/08 04:55:18;;;;;;;11.07;6.00;;;;;;;13.61;36.96;72090.53;5022639;28;20066;-88
2021/04/08 04:57:45;;;;;;;13.13;5.65;;;;;;;14.04;38.24;72140.06;5022825;28;20018;-88
2021/04/08 05:00:13;;;;;;;10.75;5.57;;;;;;;13.35;39.53;72057.88;5022678;28;20090;-87
2021/04/08 05:02:39;;;;;;;6.97;5.13;;;;;;;13.96;40.03;72126.19;5039722;28;20017;-88
2021/04/08 05:05:07;;;;;;;10.00;4.85;;;;;;;12.94;39.50;72007.97;5036383;28;20033;-87
2021/04/08 05:07:34;;;;;;;13.05;5.55;;;;;;;12.94;41.52;72011.31;4997712;28;20026;-87
2021/04/08 05:10:00;;;;;;;22.08;6.15;;;;;;;13.73;43.57;72104.25;4999615;28;20526;-88
2021/04/08 05:12:27;;;;;;;16.42;7.50;;;;;;;14.35;44.59;72173.75;5005880;28;20416;-87
2021/04/08 05:14:54;;;;;;;15.23;6.60;;;;;;;13.59;44.42;72082.59;4996108;28;20034;-87
2021/04/08 05:17:21;;;;;;;17.20;6.78;;;;;;;13.40;45.01;72063.84;4982454;28;20099;-86
2021/04/08 05:19:48;;;;;;;18.63;6.93;;;;;;;13.49;44.33;72074.03;4986468;28;20037;-88
2021/04/08 05:22:14;;;;;;;12.00;5.53;;;;;;;14.07;45.87;72141.50;5009227;28;20026;-88
2021/04/08 05:24:41;;;;;;;15.00;5.95;;;;;;;13.47;39.54;72072.22;5001831;28;20507;-88
2021/04/08 05:27:09;;;;;;;17.02;7.43;;;;;;;12.76;38.28;71987.69;5004515;28;20030;-87
2021/04/08 05:29:35;;;;;;;19.98;5.70;;;;;;;13.25;41.47;72043.78;5009979;28;20403;-87
2021/04/08 05:32:02;;;;;;;26.95;5.72;;;;;;;13.44;40.03;72065.88;5005757;28;20026;-87
2021/04/08 05:34:29;;;;;;;11.00;6.25;;;;;;;12.33;40.29;71943.69;5008418;28;20032;-87
2021/04/08 05:36:56;;;;;;;21.65;6.22;;;;;;;12.26;42.64;71935.94;5004804;28;20029;-88
2021/04/08 05:39:23;;;;;;;15.88;5.97;;;;;;;12.52;42.66;71965.16;5016215;28;20032;-88
2021/04/08 05:41:50;;;;;;;12.65;6.40;;;;;;;12.94;43.84;72010.72;4998491;28;20049;-88
2021/04/08 05:44:17;;;;;;;20.25;7.80;;;;;;;13.10;42.77;72027.06;5015936;28;20036;-89
2021/04/08 05:46:44;;;;;;;16.23;7.20;;;;;;;14.17;42.37;72152.22;4998893;28;20029;-88
2021/04/08 05:49:10;;;;;;;21.42;7.80;;;;;;;13.90;42.15;72124.53;5018227;28;20033;-88
2021/04/08 05:51:37;;;;;;;17.23;6.43;;;;;;;14.01;41.28;72137.09;4997388;28;20034;-89
2021/04/08 05:54:07;;;;;;;16.80;6.57;;;;;;;12.91;41.19;72009.91;5014289;28;20061;-88
2021/04/08 05:56:34;;;;;;;10.10;5.70;;;;;;;13.48;41.94;72072.84;4995771;28;20124;-88
2021/04/08 05:59:02;;;;;;;15.68;6.40;;;;;;;14.16;41.87;72153.81;4996551;28;20102;-88
2021/04/08 06:01:29;;;;;;;14.90;7.07;;;;;;;12.83;41.01;72001.56;5013224;28;20506;-88
2021/04/08 06:03:55;;;;;;;14.95;6.07;;;;;;;13.22;41.24;72045.72;4996791;28;20057;-87
2021/04/08 06:06:22;;;;;;;15.05;6.85;;;;;;;12.20;42.23;71928.19;4998684;28;20026;-88
2021/04/08 06:08:49;;;;;;;20.42;7.20;;;;;;;13.36;41.38;72059.06;4999449;28;20037;-89
2021/04/08 06:11:16;;;;;;;21.33;6.30;;;;;;;12.83;40.39;72000.94;5016029;28;20054;-88
2021/04/08 06:13:44;;;;;;;18.02;7.45;;;;;;;12.55;40.10;71961.06;4996986;28;20033;-89
2021/04/08 06:16:11;;;;;;;17.55;8.95;;;;;;;12.90;39.00;71997.69;4997045;28;20036;-89
2021/04/08 06:18:38;;;;;;;22.75;6.38;;;;;;;13.24;38.38;72045.94;4995347;28;20041;-88
2021/04/08 06:21:05;;;;;;;21.45;8.35;;;;;;;12.99;38.19;72019.47;4998068;28;20026;-88
2021/04/08 06:23:32;;;;;;;15.32;7.50;;;;;;;13.00;36.76;72018.50;4996879;28;20440;-87
2021/04/08 06:25:59;;;;;;;28.13;8.63;;;;;;;12.47;38.57;71957.03;4997379;28;20117;-87
2021/04/08 06:28:26;;;;;;;14.38;8.55;;;;;;;13.37;39.19;72063.03;4996836;28;20025;-87
2021/04/08 06:30:53;;;;;;;20.17;9.93;;;;;;;13.14;40.83;72034.00;4997406;28;20435;-88
2021/04/08 06:33:19;;;;;;;24.80;10.07;;;;;;;13.10;41.27;72032.00;5000054;28;20026;-87
2021/04/08 06:35:46;;;;;;;17.45;8.02;;;;;;;12.63;40.08;71975.53;4999356;28;20064;-88
2021/04/08 06:38:13;;;;;;;21.35;9.13;;;;;;;11.83;41.14;71880.91;4996416;28;20029;-89
2021/04/08 06:40:40;;;;;;;16.23;8.70;;;;;;;12.16;41.71;71919.09;4996136;28;20103;-88
2021/04/08 06:43:10;;;;;;;19.13;8.98;;;;;;;12.23;41.24;71931.78;5012929;28;20032;-87
2021/04/08 06:45:39;;;;;;;25.10;8.35;;;;;;;12.70;40.03;71983.28;5012138;28;20084;-88
2021/04/08 06:48:17;;;;;;;27.45;8.40;;;;;;;12.01;40.29;71907.28;4987440;28;20034;-88
2021/04/08 06:50:47;;;;;;;24.27;9.05;;;;;;;12.79;41.52;71996.19;4977246;28;20076;-87
2021/04/08 06:53:14;;;;;;;26.05;10.82;;;;;;;12.11;44.13;71918.63;4977356;28;20057;-87
2021/04/08 06:55:42;;;;;;;25.98;10.05;;;;;;;12.30;41.39;71937.94;4972674;28;20055;-87
2021/04/08 06:58:10;;;;;;;19.40;8.35;;;;;;;12.66;39.51;71976.34;4973630;28;20459;-87
2021/04/08 07:00:37;;;;;;;30.20;8.77;;;;;;;11.93;38.43;71897.16;4974871;28;20015;-87
2021/04/08 07:03:09;;;;;;;27.58;9.00;;;;;;;11.10;39.45;71799.63;4975232;28;20137;-88
2021/04/08 07:05:36;;;;;;;13.18;7.57;;;;;;;11.93;39.68;71895.00;4976165;28;20118;-88
2021/04/08 07:08:03;;;;;;;21.38;8.32;;;;;;;11.52;41.01;71850.66;4972391;28;20397;-88
2021/04/08 07:10:30;;;;;;;11.60;7.47;;;;;;;11.96;41.72;71900.72;4975529;28;20031;-86
2021/04/08 07:12:57;;;;;;;17.85;9.07;;;;;;;11.03;41.06;71794.03;4979647;28;20114;-87
2021/04/08 07:15:25;;;;;;;23.70;8.93;;;;;;;11.34;41.50;71829.78;4983963;28;20026;-91
2021/04/08 07:18:04;;;;;;;29.27;8.70;;;;;;;11.87;42.18;71891.19;4998843;28;20030;-93
2021/04/08 07:20:31;;;;;;;14.27;6.50;;;;;;;12.26;39.08;71932.59;5003414;28;20045;-93
2021/04/08 07:23:13;;;;;;;13.75;6.35;;;;;;;12.17;38.81;71920.28;4984927;28;20136;-93
2021/04/08 07:26:10;;;;;;;20.75;6.72;;;;;;;12.26;37.69;71932.59;5001696;28;20057;-92
2021/04/08 07:28:41;;;;;;;21.40;7.65;;;;;;;12.45;38.00;71951.91;4995740;28;20050;-92
2021/04/08 07:31:27;;;;;;;11.57;7.15;;;;;;;12.55;39.36;71968.75;4987743;28;20030;-88
2021/04/08 07:33:57;;;;;;;14.13;6.07;;;;;;;12.59;37.26;71973.50;4977926;28;20010;-91
2021/04/08 07:36:42;;;;;;;;;;;;;;;12.53;39.22;71961.44;4975686;28;20469;-88
2021/04/08 07:39:17;;;;;;;15.70;6.18;;;;;;;12.71;39.62;71985.06;4976190;28;20008;-91
2021/04/08 07:41:57;;;;;;;21.08;8.32;;;;;;;11.89;39.36;71890.81;4973097;28;20054;-90
2021/04/08 07:44:24;;;;;;;14.52;5.72;;;;;;;12.66;39.71;71979.09;4975111;28;20030;-91
2021/04/08 07:46:55;;;;;;;14.57;5.97;;;;;;;11.66;40.32;71863.41;4975759;28;20026;-92
2021/04/08 07:49:30;;;;;;;15.43;7.18;;;;;;;12.51;40.48;71963.97;4974730;28;20041;-90
2021/04/08 07:52:17;;;;;;;18.67;6.90;;;;;;;12.51;42.10;71964.56;4975823;28;20117;-91
2021/04/08 07:55:06;;;;;;;13.23;6.47;;;;;;;12.53;42.47;71961.44;4983523;28;20463;-86
2021/04/08 07:58:07;;;;;;;13.73;6.20;;;;;;;12.41;43.42;71952.63;5009338;28;20039;-90
2021/04/08 08:00:38;;;;;;;13.27;6.18;;;;;;;11.95;44.35;71896.78;5008423;28;20053;-95
2021/04/08 08:03:10;;;;;;;18.55;6.40;;;;;;;12.20;45.20;71928.19;5007717;28;20042;-87
2021/04/08 08:05:47;;;;;;;15.02;7.65;;;;;;;11.45;45.81;71839.53;4992244;28;20038;-88
2021/04/08 08:08:19;;;;;;;23.55;5.60;;;;;;;12.52;45.11;71965.16;4988571;28;20038;-88
2021/04/08 08:11:02;;;;;;;10.20;5.25;;;;;;;12.59;46.42;71974.13;4973333;28;20102;-88
2021/04/08 08:13:36;;;;;;;11.10;4.38;;;;;;;12.71;44.82;71981.72;4975142;28;20101;-86
2021/04/08 08:16:05;;;;;;;9.13;5.40;;;;;;;12.98;44.88;72015.50;4975455;28;20062;-80
2021/04/08 08:18:41;;;;;;;13.60;4.85;;;;;;;12.95;42.64;72015.28;5000529;28;20038;-86
2021/04/08 08:21:15;;;;;;;13.68;6.18;;;;;;;13.13;43.65;72035.56;5009050;28;20034;-88
2021/04/08 08:24:00;;;;;;;10.38;4.97;;;;;;;12.48;43.59;71958.22;5010056;28;20041;-88
2021/04/08 08:26:38;;;;;;;8.70;4.90;;;;;;;13.06;44.18;72027.81;4993202;28;20030;-89
2021/04/08 08:29:12;;;;;;;14.02;4.60;;;;;;;13.13;44.50;72035.56;4994043;28;20031;-88
2021/04/08 08:31:58;;;;;;;17.85;6.28;;;;;;;13.05;41.60;72020.50;4992564;28;20476;-88
2021/04/08 08:34:25;;;;;;;11.30;4.82;;;;;;;13.16;43.35;72039.16;4993082;28;20030;-90
2021/04/08 08:37:10;;;;;;;11.30;5.75;;;;;;;12.82;41.27;72000.38;4993056;28;20046;-91
2021/04/08 08:39:40;;;;;;;11.07;4.18;;;;;;;12.83;41.21;71995.44;4992235;28;20026;-90
2021/04/08 08:42:09;;;;;;;14.05;4.90;;;;;;;13.31;40.80;72053.09;4992359;28;20407;-88
2021/04/08 08:44:38;;;;;;;10.57;4.75;;;;;;;13.25;41.05;72049.91;4992269;28;20041;-90
2021/04/08 08:47:23;;;;;;;6.80;4.35;;;;;;;13.58;36.79;72084.16;4992742;28;20028;-89
2021/04/08 08:50:00;;;;;;;8.60;4.35;;;;;;;12.40;41.09;71949.28;4992429;28;20027;-89
2021/04/08 08:52:38;;;;;;;15.15;4.50;;;;;;;13.40;42.74;72063.84;4993122;28;20026;-89
2021/04/08 08:55:11;;;;;;;9.45;4.07;;;;;;;13.18;43.21;72041.53;4992030;28;20523;-89
2021/04/08 08:57:41;;;;;;;10.90;4.03;;;;;;;13.09;42.69;72030.81;4992019;28;20066;-90
2021/04/08 09:00:10;;;;;;;8.05;3.65;;;;;;;12.39;43.50;71948.09;4993107;28;20030;-88
2021/04/08 09:02:39;;;;;;;11.35;3.70;;;;;;;12.91;45.19;72010.53;4992243;28;20065;-88
2021/04/08 09:05:14;;;;;;;7.80;4.43;;;;;;;12.78;44.43;71995.00;4992881;28;20034;-90
2021/04/08 09:07:43;;;;;;;12.10;5.63;;;;;;;12.44;44.17;71956.81;4993863;28;20033;-90
2021/04/08 09:10:13;;;;;;;7.82;3.90;;;;;;;12.84;42.71;72002.16;4995367;28;20030;-90
2021/04/08 09:12:40;;;;;;;;;;;;;;;12.83;42.58;72000.94;4997932;28;20034;-90
2021/04/08 09:15:08;;;;;;;6.85;3.55;;;;;;;12.22;42.89;71928.41;4998926;28;19972;-91
2021/04/08 09:17:55;;;;;;;7.15;3.83;;;;;;;12.03;41.69;71906.34;4997788;28;20026;-90
2021/04/08 09:20:22;;;;;;;13.95;4.15;;;;;;;12.87;41.61;72005.72;4982996;28;20061;-90
2021/04/08 09:23:11;;;;;;;13.10;3.97;;;;;;;12.01;42.16;71903.94;5005930;28;20030;-94
2021/04/08 09:25:39;;;;;;;19.60;5.25;;;;;;;12.75;42.33;71991.41;5014382;28;20026;-91
2021/04/08 09:28:15;;;;;;;7.78;4.07;;;;;;;12.56;43.36;71964.41;5009302;28;20037;-90
2021/04/08 09:33:12;;;;;;;10.50;5.07;;;;;;;11.60;45.54;71854.66;4983461;28;20503;-92
2021/04/08 09:35:40;;;;;;;17.48;4.22;;;;;;;12.26;46.08;71929.81;5000878;28;20113;-90
2021/04/08 09:38:07;;;;;;;9.98;3.72;;;;;;;12.11;48.77;71915.88;4991801;28;20063;-92
2021/04/08 09:40:36;;;;;;;7.13;3.92;;;;;;;12.17;48.11;71922.44;4995855;28;20031;-90
2021/04/08 09:43:20;;;;;;;10.68;4.05;;;;;;;12.23;48.62;71931.78;5003757;28;20026;-89
2021/04/08 09:46:03;;;;;;;8.95;3.55;;;;;;;12.28;47.25;71934.97;5015331;28;20015;-90
2021/04/08 09:48:50;;;;;;;10.00;4.60;;;;;;;12.13;50.67;71920.44;5000921;28;20042;-89
2021/04/08 09:51:27;;;;;;;12.18;5.13;;;;;;;12.01;51.43;71904.53;4999059;28;20034;-90
2021/04/08 09:53:54;;;;;;;8.45;3.63;;;;;;;12.09;50.38;71913.50;4998901;28;20027;-91
2021/04/08 09:56:40;;;;;;;11.85;4.00;;;;;;;11.74;50.52;71872.94;5001146;28;20022;-88
2021/04/08 09:59:07;;;;;;;5.53;3.40;;;;;;;11.83;50.29;71883.06;5001011;28;20487;-85
2021/04/08 10:01:34;;;;;;;8.25;3.90;;;;;;;12.00;50.28;71905.50;5018735;28;20022;-92
2021/04/08 10:04:11;;;;;;;6.18;3.30;;;;;;;11.63;49.96;71863.78;5015987;28;20030;-89
2021/04/08 10:06:38;;;;;;;13.90;3.33;;;;;;;11.29;51.16;71818.91;4999566;28;20057;-89
2021/04/08 10:09:10;;;;;;;6.63;4.05;;;;;;;11.81;52.39;71884.03;4998273;28;20026;-91
2021/04/08 10:11:38;;;;;;;9.25;3.67;;;;;;;11.34;53.75;71830.38;4997201;28;20483;-90
2021/04/08 10:14:23;;;;;;;10.77;3.42;;;;;;;11.26;52.40;71818.09;4980556;28;20037;-89
2021/04/08 10:17:06;;;;;;;6.90;3.85;;;;;;;11.94;51.15;71898.94;4980141;28;20085;-89
2021/04/08 10:19:37;;;;;;;9.25;5.82;;;;;;;11.16;54.64;71804.03;4981567;28;20400;-89
2021/04/08 10:22:06;;;;;;;8.70;4.05;;;;;;;11.59;53.61;71856.25;4979752;28;20042;-90
2021/04/08 10:24:41;;;;;;;11.60;4.47;;;;;;;11.81;55.63;71884.03;4979826;28;20030;-88
2021/04/08 10:27:13;;;;;;;11.38;4.72;;;;;;;9.47;55.62;71612.63;4984783;28;20101;-90
2021/04/08 10:29:41;;;;;;;11.30;4.00;;;;;;;11.52;56.65;71850.06;5001588;28;20040;-90
2021/04/08 10:32:08;;;;;;;3.58;2.13;;;;;;;11.58;40.64;71854.47;4986618;28;20034;-91
2021/04/08 10:34:41;;;;;;;9.90;4.05;;;;;;;11.86;53.59;71887.25;5002767;28;20034;-92
2021/04/08 10:37:09;;;;;;;13.98;4.15;;;;;;;11.73;54.04;71874.50;5004005;28;20026;-91
2021/04/08 10:39:39;;;;;;;9.48;4.63;;;;;;;11.87;56.63;71891.19;5005876;28;20045;-90
2021/04/08 10:42:09;;;;;;;7.35;3.90;;;;;;;11.58;57.15;71855.03;4984929;28;20033;-93
2021/04/08 10:44:47;;;;;;;8.73;3.15;;;;;;;10.57;55.57;71741.59;5010124;28;20034;-91
2021/04/08 10:47:21;;;;;;;6.35;2.63;;;;;;;10.29;51.61;71709.44;5033836;28;20025;-93
2021/04/08 10:49:56;;;;;;;8.52;3.78;;;;;;;11.60;53.50;71857.44;5016297;28;20037;-91
2021/04/08 10:52:26;;;;;;;6.43;4.00;;;;;;;10.92;53.14;71781.50;5013926;28;20017;-92
2021/04/08 10:54:59;;;;;;;12.50;3.50;;;;;;;11.34;55.53;71829.78;5003946;28;20094;-93
2021/04/08 10:57:28;;;;;;;10.30;4.15;;;;;;;11.16;56.82;71806.16;4997747;28;20034;-93
2021/04/08 10:59:56;;;;;;;11.98;3.95;;;;;;;11.25;56.91;71819.06;4994917;28;20484;-92
2021/04/08 11:02:31;;;;;;;12.43;5.15;;;;;;;11.18;57.31;71811.31;4992357;28;20097;-94
2021/04/08 11:05:02;;;;;;;5.03;3.03;;;;;;;11.49;50.58;71847.06;4989195;28;20046;-91
2021/04/08 11:07:40;;;;;;;11.30;3.67;;;;;;;11.54;51.23;71853.03;4993867;28;20099;-92
2021/04/08 11:10:15;;;;;;;7.85;3.15;;;;;;;11.68;51.75;71863.03;4991712;28;20034;-90
2021/04/08 11:12:42;;;;;;;9.90;3.15;;;;;;;11.69;52.24;71866.97;4991290;28;21224;-91
2021/04/08 11:15:12;;;;;;;6.70;2.92;;;;;;;11.78;50.21;71880.47;4991900;28;20026;-90
2021/04/08 11:17:45;;;;;;;9.57;3.70;;;;;;;11.82;51.71;71879.13;4990844;28;20022;-93
2021/04/08 11:20:14;;;;;;;6.03;3.08;;;;;;;10.52;49.89;71736.25;4994142;28;20096;-92
2021/04/08 11:22:49;;;;;;;8.55;3.38;;;;;;;11.75;50.63;71874.13;4990395;28;20452;-91
2021/04/08 11:25:17;;;;;;;8.85;4.63;;;;;;;10.76;51.29;71763.63;4985161;28;20042;-90
2021/04/08 11:27:44;;;;;;;7.78;4.32;;;;;;;11.85;52.24;71888.81;4978791;28;20030;-93
2021/04/08 11:30:28;;;;;;;5.72;2.92;;;;;;;11.55;50.90;71851.47;4995418;28;20081;-92
2021/04/08 11:32:57;;;;;;;7.22;3.67;;;;;;;11.70;51.55;71865.41;4992123;28;20494;-90
2021/04/08 11:35:37;;;;;;;10.50;3.78;;;;;;;11.83;48.18;71880.31;4993229;28;20027;-90
2021/04/08 11:38:13;;;;;;;3.45;2.67;;;;;;;12.03;41.69;71909.72;4992939;28;20026;-92
2021/04/08 11:40:51;;;;;;;10.75;3.50;;;;;;;11.07;41.72;71798.81;4993912;28;20030;-91
2021/04/08 11:43:25;;;;;;;5.88;4.32;;;;;;;11.74;39.94;71875.69;4993520;28;20026;-92